Time;durP1;ratioP1;P1;durP2;ratioP2;P2;SDS_P1;SDS_P2;PMS_P1;PMS_P2;Temp;Humidity;BMP_temperature;BMP_pressure;BME280_temperature;BME280_humidity;BME280_pressure;Samples;Min_cycle;Max_cycle;Signal;HPM_P1;HPM_P2
2022/12/11 00:02:19;;;;;;;11.00;10.37;;;20.00;48.00;;;;;;5032954;28;20572;-55
2022/12/11 00:04:46;;;;;;;11.33;10.30;;;20.00;48.10;;;;;;5032950;28;20532;-54
2022/12/11 00:07:13;;;;;;;11.93;11.30;;;20.00;48.20;;;;;;5028210;28;20468;-55
2022/12/11 00:09:40;;;;;;;10.83;10.33;;;20.00;48.20;;;;;;5013090;28;20972;-55
2022/12/11 00:12:08;;;;;;;11.30;10.53;;;19.90;48.20;;;;;;5013031;28;20916;-54
2022/12/11 00:14:35;;;;;;;10.40;9.90;;;19.90;48.20;;;;;;5013027;28;20446;-56
2022/12/11 00:17:02;;;;;;;10.67;10.07;;;19.90;48.20;;;;;;5013226;28;20466;-55
2022/12/11 00:19:29;;;;;;;11.30;10.43;;;19.90;48.20;;;;;;5018997;28;20452;-53
2022/12/11 00:21:56;;;;;;;10.53;9.93;;;19.90;48.30;;;;;;5032554;28;20845;-58
2022/12/11 00:24:23;;;;;;;10.93;10.33;;;19.90;48.30;;;;;;5032480;28;20488;-57
2022/12/11 00:26:50;;;;;;;10.77;10.17;;;19.90;48.20;;;;;;5032400;28;20559;-58
2022/12/11 00:29:18;;;;;;;10.57;9.97;;;19.90;48.30;;;;;;5032411;28;20441;-57
2022/12/11 00:31:44;;;;;;;11.03;10.33;;;19.80;48.20;;;;;;5023874;28;20882;-55
2022/12/11 00:34:11;;;;;;;10.77;10.17;;;19.80;48.20;;;;;;5012703;28;20444;-56
2022/12/11 00:36:39;;;;;;;12.23;11.53;;;19.80;48.20;;;;;;5012474;28;20474;-59
2022/12/11 00:39:07;;;;;;;11.40;10.80;;;19.80;48.20;;;;;;5013462;28;20461;-57
2022/12/11 00:41:34;;;;;;;11.70;10.90;;;19.70;48.20;;;;;;5012417;28;20536;-57
2022/12/11 00:44:00;;;;;;;11.27;10.50;;;19.70;48.30;;;;;;5012431;28;20482;-56
2022/12/11 00:46:28;;;;;;;12.87;12.07;;;19.70;48.30;;;;;;5012244;28;20488;-59
2022/12/11 00:48:55;;;;;;;11.37;10.77;;;19.70;48.30;;;;;;5016524;28;20448;-54
2022/12/11 00:51:22;;;;;;;10.50;9.80;;;19.70;48.30;;;;;;5032036;28;20536;-57
2022/12/11 00:53:49;;;;;;;12.50;11.80;;;19.70;48.30;;;;;;5032001;28;20928;-57
2022/12/11 00:56:18;;;;;;;11.00;10.50;;;19.60;48.30;;;;;;5031938;28;20467;-53
2022/12/11 00:58:45;;;;;;;11.37;10.60;;;19.60;48.20;;;;;;5015106;28;20533;-57
2022/12/11 01:01:16;;;;;;;11.70;10.97;;;19.60;48.20;;;;;;5012124;28;20449;-55
2022/12/11 01:03:44;;;;;;;10.73;10.03;;;19.60;48.20;;;;;;5012167;28;20482;-56
2022/12/11 01:06:14;;;;;;;10.90;10.20;;;19.60;48.30;;;;;;5020889;28;21003;-55
2022/12/11 01:08:41;;;;;;;11.70;10.97;;;19.60;48.30;;;;;;5031786;28;20445;-58
2022/12/11 01:11:09;;;;;;;10.80;10.10;;;19.60;48.40;;;;;;5031653;28;20444;-55
2022/12/11 01:13:36;;;;;;;10.57;9.97;;;19.60;48.40;;;;;;5030062;28;20487;-56
2022/12/11 01:16:07;;;;;;;11.33;10.73;;;19.50;48.50;;;;;;5011950;28;20462;-56
2022/12/11 01:18:34;;;;;;;11.70;11.00;;;19.50;48.60;;;;;;5012177;28;20536;-59
2022/12/11 01:21:07;;;;;;;11.13;10.33;;;19.50;48.70;;;;;;5011783;28;20438;-57
2022/12/11 01:23:34;;;;;;;10.57;9.77;;;19.50;48.70;;;;;;5012474;28;20488;-59
2022/12/11 01:26:06;;;;;;;10.87;10.27;;;19.50;48.80;;;;;;5031595;28;20465;-55
2022/12/11 01:28:33;;;;;;;11.40;10.57;;;19.50;48.80;;;;;;5031521;28;20445;-56
2022/12/11 01:30:59;;;;;;;11.17;10.63;;;19.50;48.80;;;;;;5031501;28;20441;-58
2022/12/11 01:33:26;;;;;;;9.50;9.00;;;19.50;48.80;;;;;;5031563;28;20443;-56
2022/12/11 01:35:54;;;;;;;10.80;10.10;;;19.50;48.80;;;;;;5029443;28;20469;-56
2022/12/11 01:38:22;;;;;;;11.93;11.07;;;19.50;48.80;;;;;;5011830;28;20442;-59
2022/12/11 01:40:50;;;;;;;11.17;10.50;;;19.50;48.80;;;;;;5011592;28;20537;-57
2022/12/11 01:43:17;;;;;;;11.33;10.70;;;19.50;48.80;;;;;;5011674;28;20481;-59
2022/12/11 01:45:45;;;;;;;12.20;11.40;;;19.50;48.80;;;;;;5011692;28;20482;-58
2022/12/11 01:48:17;;;;;;;11.33;10.63;;;19.40;48.70;;;;;;5014128;28;20470;-55
2022/12/11 01:50:48;;;;;;;11.57;10.80;;;19.50;48.80;;;;;;5034257;28;20451;-57
2022/12/11 01:53:20;;;;;;;10.93;10.30;;;19.50;48.80;;;;;;5045188;28;20517;-58
2022/12/11 01:55:50;;;;;;;10.40;9.90;;;19.40;48.70;;;;;;5046119;28;20499;-59
2022/12/11 01:58:20;;;;;;;10.37;9.70;;;19.40;48.70;;;;;;5045855;28;20472;-59
2022/12/11 02:00:47;;;;;;;10.83;10.10;;;19.40;48.70;;;;;;5038722;28;20466;-59
2022/12/11 02:03:14;;;;;;;12.23;11.43;;;19.40;48.70;;;;;;5025484;28;20573;-55
2022/12/11 02:05:41;;;;;;;10.33;9.73;;;19.40;48.70;;;;;;5043804;28;20457;-57
2022/12/11 02:08:08;;;;;;;10.67;10.07;;;19.40;48.60;;;;;;5031773;28;20955;-53
2022/12/11 02:10:47;;;;;;;10.90;10.20;;;19.40;48.60;;;;;;5031047;28;20948;-54
2022/12/11 02:13:20;;;;;;;11.20;10.50;;;19.40;48.60;;;;;;5022998;28;20448;-55
2022/12/11 02:15:51;;;;;;;11.17;10.50;;;19.40;48.50;;;;;;5011481;28;20990;-55
2022/12/11 02:18:28;;;;;;;10.43;9.73;;;19.40;48.60;;;;;;5011460;28;20460;-56
2022/12/11 02:20:58;;;;;;;10.90;10.00;;;19.40;48.60;;;;;;5011312;28;21006;-56
2022/12/11 02:23:45;;;;;;;9.70;9.10;;;19.40;48.60;;;;;;5011371;28;20478;-56
2022/12/11 02:26:24;;;;;;;10.73;10.03;;;19.40;48.60;;;;;;5025742;28;20475;-56
2022/12/11 02:28:55;;;;;;;10.77;10.13;;;19.30;48.60;;;;;;5031009;28;20441;-55
2022/12/11 02:31:27;;;;;;;10.70;10.10;;;19.30;48.60;;;;;;5030961;28;20447;-58
2022/12/11 02:34:01;;;;;;;10.93;10.20;;;19.30;48.70;;;;;;5031152;28;20444;-54
2022/12/11 02:36:33;;;;;;;9.93;9.40;;;19.30;48.70;;;;;;5030202;28;20465;-54
2022/12/11 02:39:02;;;;;;;10.50;9.97;;;19.30;48.80;;;;;;5011013;28;20456;-56
2022/12/11 02:41:31;;;;;;;10.47;9.87;;;19.30;48.80;;;;;;5011261;28;20446;-56
2022/12/11 02:44:01;;;;;;;10.93;10.30;;;19.30;49.40;;;;;;5011228;28;20481;-59
2022/12/11 02:46:29;;;;;;;11.10;10.00;;;19.30;48.80;;;;;;5011001;28;20477;-58
2022/12/11 02:48:57;;;;;;;9.03;8.50;;;19.30;48.80;;;;;;5014485;28;20934;-58
2022/12/11 02:51:28;;;;;;;9.70;9.20;;;19.30;48.80;;;;;;5028239;28;20985;-57
2022/12/11 02:53:59;;;;;;;9.80;9.30;;;19.30;48.80;;;;;;5014548;28;20446;-53
2022/12/11 02:56:32;;;;;;;10.40;9.60;;;19.30;48.80;;;;;;5014556;28;20560;-55
2022/12/11 02:59:06;;;;;;;9.53;9.03;;;19.30;48.90;;;;;;5014359;28;20792;-54
2022/12/11 03:01:32;;;;;;;9.73;9.23;;;19.30;48.90;;;;;;5015513;28;20538;-56
2022/12/11 03:03:59;;;;;;;9.73;9.23;;;19.30;48.90;;;;;;5014240;28;20488;-55
2022/12/11 03:06:34;;;;;;;10.50;9.80;;;19.30;48.90;;;;;;5014163;28;20549;-55
2022/12/11 03:09:01;;;;;;;9.33;8.73;;;19.30;48.90;;;;;;5014123;28;20445;-55
2022/12/11 03:11:28;;;;;;;12.30;11.70;;;19.30;48.90;;;;;;5031191;28;20445;-55
2022/12/11 03:13:55;;;;;;;11.30;10.47;;;19.20;48.90;;;;;;5033919;28;20437;-55
2022/12/11 03:16:31;;;;;;;10.50;9.90;;;19.30;48.90;;;;;;5033792;28;21015;-54
2022/12/11 03:19:06;;;;;;;10.50;9.80;;;19.20;48.90;;;;;;5033784;28;20449;-57
2022/12/11 03:21:36;;;;;;;10.00;9.40;;;19.30;48.80;;;;;;5015983;28;20500;-55
2022/12/11 03:24:07;;;;;;;10.87;10.10;;;19.20;48.80;;;;;;5014082;28;20482;-54
2022/12/11 03:26:39;;;;;;;10.00;9.40;;;19.20;48.80;;;;;;5013875;28;20474;-55
2022/12/11 03:29:16;;;;;;;9.90;9.33;;;19.20;48.80;;;;;;5013804;28;20533;-57
2022/12/11 03:31:50;;;;;;;10.10;9.60;;;19.20;48.80;;;;;;5016759;28;20452;-57
2022/12/11 03:34:23;;;;;;;10.63;9.63;;;19.20;48.80;;;;;;5033551;28;20448;-57
2022/12/11 03:36:51;;;;;;;10.93;10.27;;;19.20;48.80;;;;;;5033392;28;20476;-55
2022/12/11 03:39:24;;;;;;;9.30;8.80;;;19.20;48.80;;;;;;5033301;28;20437;-55
2022/12/11 03:41:53;;;;;;;10.33;9.60;;;19.20;48.90;;;;;;5033506;28;20441;-58
2022/12/11 03:44:22;;;;;;;9.17;8.67;;;19.20;48.80;;;;;;5024082;28;20504;-56
2022/12/11 03:46:53;;;;;;;10.80;10.20;;;19.20;48.80;;;;;;5013362;28;20478;-55
2022/12/11 03:49:24;;;;;;;9.97;9.53;;;19.20;48.90;;;;;;5013402;28;20617;-57
2022/12/11 03:51:53;;;;;;;10.70;10.10;;;19.20;48.90;;;;;;5013429;28;20446;-54
2022/12/11 03:54:20;;;;;;;10.47;9.77;;;19.20;48.90;;;;;;5013409;28;20809;-55
2022/12/11 03:56:50;;;;;;;10.60;9.90;;;19.20;48.90;;;;;;5014453;28;20833;-55
2022/12/11 03:59:17;;;;;;;10.80;10.00;;;19.20;48.90;;;;;;5019610;28;20956;-56
2022/12/11 04:01:44;;;;;;;10.00;9.30;;;19.10;48.80;;;;;;5032955;28;20441;-53
2022/12/11 04:04:13;;;;;;;9.83;9.23;;;19.10;48.90;;;;;;5032916;28;20503;-57
2022/12/11 04:06:39;;;;;;;10.03;9.50;;;19.10;48.90;;;;;;5032742;28;20469;-55
2022/12/11 04:09:06;;;;;;;10.83;10.23;;;19.10;48.90;;;;;;5017952;28;20452;-58
2022/12/11 04:11:36;;;;;;;9.73;9.13;;;19.10;49.50;;;;;;5013071;28;20867;-57
2022/12/11 04:16:48;;;;;;;10.10;9.60;;;19.10;48.90;;;;;;5022005;28;20825;-57
2022/12/11 04:24:47;;;;;;;10.90;10.30;;;19.10;49.20;;;;;;5032695;28;20487;-56
2022/12/11 04:27:47;;;;;;;10.77;10.17;;;19.10;49.10;;;;;;5019804;28;20977;-54
2022/12/11 04:30:01;;;;;;;11.00;10.40;;;19.10;49.20;;;;;;5012408;28;20442;-55
2022/12/11 04:32:28;;;;;;;11.30;10.70;;;19.10;49.20;;;;;;5012794;28;20528;-54
2022/12/11 04:34:56;;;;;;;11.10;10.40;;;19.10;49.20;;;;;;5012822;28;20464;-54
2022/12/11 04:37:23;;;;;;;10.07;9.57;;;19.10;49.20;;;;;;5012663;28;21003;-55
2022/12/11 04:39:50;;;;;;;11.10;10.37;;;19.10;49.20;;;;;;5028075;28;20449;-54
2022/12/11 04:42:17;;;;;;;9.93;9.43;;;19.10;49.10;;;;;;5032287;28;20460;-54
2022/12/11 04:44:44;;;;;;;9.60;9.13;;;19.10;49.20;;;;;;5032176;28;20847;-57
2022/12/11 04:47:10;;;;;;;10.93;10.23;;;19.10;49.10;;;;;;5032044;28;20475;-55
2022/12/11 04:49:37;;;;;;;11.30;10.70;;;19.10;49.70;;;;;;5031738;28;20437;-54
2022/12/11 04:52:05;;;;;;;10.27;9.67;;;19.10;49.10;;;;;;5012292;28;20473;-51
2022/12/11 04:54:32;;;;;;;10.27;9.67;;;19.10;49.10;;;;;;5012410;28;20442;-54
2022/12/11 04:56:59;;;;;;;9.80;9.30;;;19.10;49.00;;;;;;5012207;28;20895;-55
2022/12/11 04:59:26;;;;;;;10.40;9.80;;;19.10;49.00;;;;;;5018524;28;20521;-55
2022/12/11 05:01:53;;;;;;;10.33;9.80;;;19.10;49.00;;;;;;5031968;28;20835;-53
2022/12/11 05:04:20;;;;;;;10.50;9.73;;;19.10;49.00;;;;;;5031752;28;20477;-54
2022/12/11 05:06:49;;;;;;;10.37;9.67;;;19.10;49.00;;;;;;5031749;28;20476;-56
2022/12/11 05:09:17;;;;;;;9.77;9.30;;;19.10;49.00;;;;;;5021537;28;20814;-52
2022/12/11 05:11:44;;;;;;;10.80;10.13;;;19.10;49.00;;;;;;5011287;28;20525;-54
2022/12/11 05:14:11;;;;;;;9.80;9.30;;;19.10;49.00;;;;;;5012018;28;20444;-53
2022/12/11 05:16:38;;;;;;;9.83;9.23;;;19.10;49.00;;;;;;5013693;28;20545;-53
2022/12/11 05:19:05;;;;;;;9.77;9.27;;;19.10;49.00;;;;;;5031371;28;20454;-53
2022/12/11 05:21:32;;;;;;;11.23;10.23;;;19.00;48.90;;;;;;5031602;28;20453;-54
2022/12/11 05:23:58;;;;;;;10.20;9.60;;;19.00;48.90;;;;;;5031604;28;20488;-54
2022/12/11 05:26:27;;;;;;;10.10;9.50;;;19.00;49.00;;;;;;5031157;28;20461;-55
2022/12/11 05:28:55;;;;;;;11.30;10.67;;;19.00;49.00;;;;;;5011759;28;20531;-54
2022/12/11 05:31:23;;;;;;;10.90;10.30;;;19.00;49.00;;;;;;5011755;28;20446;-55
2022/12/11 05:33:52;;;;;;;10.47;9.77;;;19.00;49.00;;;;;;5011761;28;20449;-55
2022/12/11 05:36:22;;;;;;;10.30;9.60;;;19.00;49.10;;;;;;5011691;28;20477;-55
2022/12/11 05:38:49;;;;;;;9.33;8.93;;;19.00;49.20;;;;;;5011319;28;20482;-54
2022/12/11 05:41:18;;;;;;;9.80;9.30;;;19.00;49.30;;;;;;5011473;28;20450;-55
2022/12/11 05:43:47;;;;;;;10.73;9.63;;;19.00;49.30;;;;;;5011811;28;22744;-55
2022/12/11 05:46:16;;;;;;;9.17;8.67;;;19.00;49.40;;;;;;5011506;28;20478;-56
2022/12/11 05:48:44;;;;;;;9.10;8.70;;;19.00;49.30;;;;;;5011777;28;20461;-57
2022/12/11 05:51:13;;;;;;;10.40;9.90;;;19.00;49.30;;;;;;5011396;28;20942;-56
2022/12/11 05:53:41;;;;;;;9.07;8.57;;;19.00;49.30;;;;;;5011528;28;20442;-56
2022/12/11 05:56:11;;;;;;;10.13;9.53;;;19.00;49.30;;;;;;5011520;28;20470;-55
2022/12/11 05:58:38;;;;;;;10.40;9.80;;;19.00;49.30;;;;;;5011656;28;20448;-55
2022/12/11 06:01:10;;;;;;;10.30;9.50;;;19.00;49.30;;;;;;5011382;28;20442;-54
2022/12/11 06:03:37;;;;;;;9.67;8.93;;;19.00;49.20;;;;;;5011267;28;20446;-55
2022/12/11 06:06:04;;;;;;;8.70;8.30;;;19.00;49.20;;;;;;5011439;28;20462;-54
2022/12/11 06:08:31;;;;;;;8.47;8.07;;;19.00;49.20;;;;;;5011478;28;20472;-53
2022/12/11 06:10:58;;;;;;;9.60;9.10;;;19.00;49.10;;;;;;5011370;28;20446;-58
2022/12/11 06:13:25;;;;;;;8.73;8.33;;;19.00;49.40;;;;;;5011387;28;20476;-53
2022/12/11 06:15:53;;;;;;;9.07;8.57;;;19.10;49.60;;;;;;5011224;28;20465;-53
2022/12/11 06:18:21;;;;;;;9.30;8.80;;;19.20;50.30;;;;;;5011363;28;20442;-53
2022/12/11 06:20:48;;;;;;;9.50;9.00;;;19.20;50.50;;;;;;5011175;28;20444;-57
2022/12/11 06:23:14;;;;;;;8.93;8.43;;;19.30;51.40;;;;;;5013856;28;21009;-56
2022/12/11 06:25:41;;;;;;;9.60;9.00;;;19.30;50.80;;;;;;5015009;28;20489;-60
2022/12/11 06:28:08;;;;;;;10.20;9.70;;;19.40;50.80;;;;;;5015083;28;20445;-57
2022/12/11 06:30:36;;;;;;;9.50;8.90;;;19.40;50.10;;;;;;5014743;28;20446;-56
2022/12/11 06:33:03;;;;;;;8.23;7.83;;;19.50;49.60;;;;;;5014588;28;20468;-56
2022/12/11 06:35:31;;;;;;;12.80;11.90;;;19.50;50.00;;;;;;5014480;28;20461;-54
2022/12/11 06:37:58;;;;;;;13.17;12.57;;;19.60;50.70;;;;;;5031586;28;20455;-60
2022/12/11 06:40:25;;;;;;;13.07;12.47;;;19.60;51.00;;;;;;5034267;28;20451;-62
2022/12/11 06:42:53;;;;;;;14.07;13.17;;;19.70;51.20;;;;;;5034634;28;20455;-60
2022/12/11 06:45:20;;;;;;;12.37;11.70;;;19.70;51.00;;;;;;5034214;28;20484;-61
2022/12/11 06:47:47;;;;;;;11.40;10.90;;;19.80;50.60;;;;;;5025250;28;20621;-62
2022/12/11 06:50:14;;;;;;;13.23;12.43;;;19.80;50.20;;;;;;5014492;28;20532;-59
2022/12/11 06:52:42;;;;;;;11.70;11.20;;;19.90;49.80;;;;;;5014636;28;20449;-60
2022/12/11 06:55:09;;;;;;;13.13;12.27;;;19.90;49.80;;;;;;5014546;28;20444;-60
2022/12/11 06:57:36;;;;;;;12.20;11.70;;;20.00;49.50;;;;;;5014563;28;20456;-59
2022/12/11 07:00:03;;;;;;;12.30;11.70;;;20.10;49.40;;;;;;5018124;28;20450;-58
2022/12/11 07:02:30;;;;;;;11.23;10.83;;;20.10;49.40;;;;;;5018304;28;20452;-59
2022/12/11 07:04:57;;;;;;;12.70;12.20;;;20.10;49.20;;;;;;5014342;28;20485;-59
2022/12/11 07:07:24;;;;;;;12.73;12.03;;;20.20;49.00;;;;;;5014277;28;20458;-56
2022/12/11 07:09:52;;;;;;;12.23;11.73;;;20.20;48.80;;;;;;5014025;28;20825;-53
2022/12/11 07:12:19;;;;;;;13.43;12.77;;;20.20;48.80;;;;;;5024695;28;20449;-52
2022/12/11 07:14:46;;;;;;;12.40;11.80;;;20.20;48.60;;;;;;5034057;28;20812;-59
2022/12/11 07:17:12;;;;;;;13.30;12.40;;;20.30;49.00;;;;;;5033930;28;20467;-50
2022/12/11 07:19:40;;;;;;;12.40;11.80;;;20.40;48.90;;;;;;5033997;28;20441;-52
2022/12/11 07:22:06;;;;;;;13.03;12.43;;;20.50;49.00;;;;;;5034198;28;20441;-48
2022/12/11 07:24:33;;;;;;;12.80;12.30;;;20.60;48.80;;;;;;5020362;28;20488;-57
2022/12/11 07:27:01;;;;;;;12.63;12.03;;;20.70;48.70;;;;;;5030370;28;20568;-57
2022/12/11 07:29:28;;;;;;;13.63;13.03;;;20.80;48.70;;;;;;5034009;28;20951;-53
2022/12/11 07:31:55;;;;;;;10.93;10.53;;;20.90;49.60;;;;;;5033801;28;20447;-57
2022/12/11 07:34:22;;;;;;;12.80;12.07;;;21.00;49.10;;;;;;5032860;28;20437;-57
2022/12/11 07:36:49;;;;;;;12.17;11.67;;;21.20;49.30;;;;;;5030200;28;20864;-56
2022/12/11 07:39:15;;;;;;;12.27;11.67;;;21.30;48.70;;;;;;5033303;28;20455;-55
2022/12/11 07:41:42;;;;;;;12.33;11.83;;;21.40;48.40;;;;;;5033471;28;20472;-54
2022/12/11 07:44:10;;;;;;;13.07;12.57;;;21.40;48.10;;;;;;5033372;28;20445;-53
2022/12/11 07:46:37;;;;;;;12.90;12.40;;;21.50;48.00;;;;;;5033749;28;20499;-53
2022/12/11 07:49:05;;;;;;;11.93;11.43;;;21.60;47.90;;;;;;5019949;28;20972;-53
2022/12/11 07:51:34;;;;;;;12.23;11.63;;;21.60;47.60;;;;;;5013323;28;20453;-53
2022/12/11 07:54:03;;;;;;;13.90;13.20;;;21.70;47.60;;;;;;5013571;28;20533;-52
2022/12/11 07:56:30;;;;;;;12.10;11.50;;;21.70;47.30;;;;;;5013319;28;21037;-52
2022/12/11 07:58:59;;;;;;;12.13;11.63;;;21.80;47.50;;;;;;5013256;28;20865;-49
2022/12/11 08:01:29;;;;;;;13.23;12.77;;;21.80;47.40;;;;;;5030606;28;20472;-50
2022/12/11 08:03:56;;;;;;;12.17;11.57;;;21.90;47.20;;;;;;5033135;28;20877;-49
2022/12/11 08:06:27;;;;;;;12.83;12.23;;;21.90;47.00;;;;;;5032856;28;20487;-51
2022/12/11 08:08:54;;;;;;;11.02;10.52;;;22.00;47.00;;;;;;5030215;28;20536;-51
2022/12/11 08:11:21;;;;;;;12.43;11.93;;;22.00;47.10;;;;;;5022100;28;20290;-52
2022/12/11 08:13:48;;;;;;;11.57;11.17;;;22.20;46.90;;;;;;5013178;28;20448;-51
2022/12/11 08:16:16;;;;;;;11.73;11.23;;;22.30;46.80;;;;;;5012999;28;20497;-54
2022/12/11 08:18:47;;;;;;;13.37;12.87;;;22.30;46.70;;;;;;5025496;28;20460;-52
2022/12/11 08:21:16;;;;;;;13.80;13.20;;;22.30;46.60;;;;;;5032728;28;20556;-53
2022/12/11 08:23:43;;;;;;;11.80;11.30;;;22.40;46.60;;;;;;5032659;28;20528;-49
2022/12/11 08:26:13;;;;;;;12.37;11.87;;;22.40;46.50;;;;;;5032594;28;20491;-50
2022/12/11 08:28:40;;;;;;;12.60;12.17;;;22.40;46.30;;;;;;5032835;28;20445;-49
2022/12/11 08:31:09;;;;;;;12.37;11.80;;;22.50;46.40;;;;;;5018231;28;20956;-49
2022/12/11 08:33:37;;;;;;;12.53;12.03;;;22.50;46.20;;;;;;5012729;28;20469;-51
2022/12/11 08:36:07;;;;;;;12.43;11.93;;;22.50;46.10;;;;;;5013714;28;20487;-48
2022/12/11 08:38:35;;;;;;;12.73;12.07;;;22.40;46.10;;;;;;5028282;28;20455;-48
2022/12/11 08:41:08;;;;;;;12.77;12.17;;;22.40;46.30;;;;;;5032208;28;20445;-48
2022/12/11 08:43:35;;;;;;;12.30;11.80;;;22.50;46.50;;;;;;5016964;28;20454;-48
2022/12/11 08:46:02;;;;;;;12.70;12.20;;;22.50;46.40;;;;;;5012221;28;20486;-49
2022/12/11 08:48:29;;;;;;;13.77;13.17;;;22.60;46.40;;;;;;5012557;28;20926;-49
2022/12/11 08:50:58;;;;;;;12.60;12.10;;;22.60;46.40;;;;;;5012325;28;20443;-50
2022/12/11 08:53:27;;;;;;;13.10;12.60;;;22.70;46.20;;;;;;5030324;28;20456;-50
2022/12/11 08:55:54;;;;;;;14.80;14.13;;;22.70;46.10;;;;;;5032081;28;20895;-47
2022/12/11 08:58:21;;;;;;;13.83;13.23;;;22.70;46.10;;;;;;5031973;28;20441;-49
2022/12/11 09:00:47;;;;;;;13.53;12.93;;;22.80;46.60;;;;;;5031706;28;20861;-49
2022/12/11 09:03:15;;;;;;;12.33;11.83;;;22.80;46.70;;;;;;5015521;28;20450;-47
2022/12/11 09:05:42;;;;;;;13.73;13.13;;;22.80;46.50;;;;;;5011990;28;20482;-47
2022/12/11 09:08:09;;;;;;;11.80;11.40;;;22.80;46.20;;;;;;5012222;28;20492;-47
2022/12/11 09:10:37;;;;;;;13.57;13.10;;;22.90;46.60;;;;;;5012011;28;20444;-47
2022/12/11 09:13:06;;;;;;;13.20;12.60;;;22.90;46.30;;;;;;5012019;28;20547;-51
2022/12/11 09:15:33;;;;;;;12.30;11.90;;;22.90;46.60;;;;;;5028900;28;20480;-51
2022/12/11 09:18:00;;;;;;;12.03;11.53;;;23.00;46.40;;;;;;5031682;28;20445;-50
2022/12/11 09:20:26;;;;;;;12.50;12.00;;;23.00;46.20;;;;;;5031625;28;20445;-50
2022/12/11 09:22:53;;;;;;;12.43;12.00;;;23.00;46.10;;;;;;5031839;28;20451;-51
2022/12/11 09:25:20;;;;;;;12.03;11.53;;;23.00;46.00;;;;;;5031292;28;20575;-49
2022/12/11 09:27:48;;;;;;;12.40;11.90;;;23.10;45.90;;;;;;5014900;28;20504;-55
2022/12/11 09:30:15;;;;;;;14.30;13.77;;;23.10;45.90;;;;;;5026998;28;20445;-51
2022/12/11 09:32:42;;;;;;;12.40;12.00;;;23.10;45.80;;;;;;5031731;28;20503;-52
2022/12/11 09:35:10;;;;;;;13.07;12.57;;;23.10;46.00;;;;;;5031206;28;20992;-53
2022/12/11 09:37:38;;;;;;;13.03;12.03;;;23.10;45.80;;;;;;5029393;28;20459;-52
2022/12/11 09:40:05;;;;;;;12.00;11.60;;;23.10;45.80;;;;;;5028813;28;20481;-51
2022/12/11 09:42:46;;;;;;;12.63;12.23;;;23.20;45.90;;;;;;5031392;28;20448;-53
2022/12/11 09:45:16;;;;;;;12.03;11.63;;;23.10;45.60;;;;;;5032877;28;20481;-59
2022/12/11 09:47:45;;;;;;;13.70;12.90;;;23.10;45.60;;;;;;5031695;28;20929;-59
2022/12/11 09:50:18;;;;;;;13.17;12.67;;;23.10;46.40;;;;;;5027275;28;20449;-51
2022/12/11 09:52:57;;;;;;;12.47;12.07;;;23.20;46.40;;;;;;5011648;28;20813;-55
2022/12/11 09:55:28;;;;;;;13.40;12.90;;;23.20;47.20;;;;;;5011618;28;20452;-57
2022/12/11 09:58:01;;;;;;;12.70;12.20;;;23.20;46.10;;;;;;5014051;28;20446;-55
2022/12/11 10:00:36;;;;;;;11.90;11.50;;;23.20;45.90;;;;;;5015380;28;21018;-58
2022/12/11 10:03:29;;;;;;;13.00;12.50;;;23.30;45.90;;;;;;5019516;28;20523;-52
2022/12/11 10:06:02;;;;;;;12.00;11.50;;;23.30;45.70;;;;;;5015348;28;20491;-54
2022/12/11 10:08:33;;;;;;;12.03;11.63;;;23.30;45.50;;;;;;5015464;28;20535;-52
2022/12/11 10:11:15;;;;;;;12.87;12.30;;;23.40;45.50;;;;;;5015215;28;20442;-58
2022/12/11 10:13:54;;;;;;;12.90;12.40;;;23.40;45.50;;;;;;5015396;28;20446;-55
2022/12/11 10:16:33;;;;;;;12.90;12.47;;;23.40;45.40;;;;;;5015193;28;20468;-57
2022/12/11 10:19:00;;;;;;;12.47;12.07;;;23.40;45.30;;;;;;5015088;28;20442;-55
2022/12/11 10:21:31;;;;;;;12.10;11.70;;;23.50;45.30;;;;;;5015128;28;20445;-50
2022/12/11 10:24:02;;;;;;;12.27;11.83;;;23.50;45.30;;;;;;5015257;28;20533;-54
2022/12/11 10:26:29;;;;;;;12.50;11.90;;;23.50;45.20;;;;;;5022054;28;20492;-53
2022/12/11 10:28:59;;;;;;;12.90;12.40;;;23.50;45.20;;;;;;5034698;28;21043;-54
2022/12/11 10:31:38;;;;;;;12.33;11.90;;;23.60;45.90;;;;;;5034910;28;20455;-51
2022/12/11 10:34:12;;;;;;;12.20;11.80;;;23.60;45.30;;;;;;5034713;28;20448;-58
2022/12/11 10:36:40;;;;;;;12.57;12.10;;;23.60;45.20;;;;;;5034657;28;20481;-52
2022/12/11 10:39:13;;;;;;;13.40;12.80;;;23.60;45.10;;;;;;5023162;28;20450;-54
2022/12/11 10:41:43;;;;;;;12.50;12.10;;;23.60;45.20;;;;;;5014723;28;20529;-55
2022/12/11 10:44:16;;;;;;;13.10;12.60;;;23.60;45.10;;;;;;5014798;28;20442;-53
2022/12/11 10:46:44;;;;;;;12.43;12.03;;;23.60;44.90;;;;;;5019170;28;20480;-53
2022/12/11 10:49:22;;;;;;;12.90;12.50;;;23.60;44.90;;;;;;5034250;28;20480;-52
2022/12/11 10:51:50;;;;;;;13.77;13.27;;;23.70;45.10;;;;;;5034463;28;20448;-58
2022/12/11 10:54:29;;;;;;;13.50;13.00;;;23.70;45.10;;;;;;5034385;28;20448;-56
2022/12/11 10:56:56;;;;;;;13.17;12.73;;;23.70;44.80;;;;;;5027406;28;20484;-54
2022/12/11 10:59:27;;;;;;;14.00;13.20;;;23.70;44.70;;;;;;5014391;28;20441;-57
2022/12/11 11:01:57;;;;;;;11.97;11.50;;;23.70;44.90;;;;;;5014448;28;20493;-56
2022/12/11 11:04:29;;;;;;;13.57;12.53;;;23.70;45.10;;;;;;5014409;28;20446;-56
2022/12/11 11:07:12;;;;;;;15.30;14.30;;;23.70;45.40;;;;;;5014273;28;21012;-53
2022/12/11 11:09:40;;;;;;;17.50;15.80;;;23.70;45.80;;;;;;5016920;28;20446;-53
2022/12/11 11:12:20;;;;;;;15.37;14.17;;;23.70;49.00;;;;;;5014276;28;20456;-53
2022/12/11 11:14:47;;;;;;;15.83;14.63;;;23.70;48.70;;;;;;5014206;28;20870;-57
2022/12/11 11:17:17;;;;;;;18.63;13.43;;;23.60;50.00;;;;;;5017612;28;21080;-54
2022/12/11 11:19:47;;;;;;;16.33;14.23;;;23.60;51.90;;;;;;5031491;28;20456;-58
2022/12/11 11:22:17;;;;;;;14.13;12.77;;;23.50;52.20;;;;;;5014398;28;20446;-56
2022/12/11 11:24:45;;;;;;;14.57;13.47;;;23.50;50.10;;;;;;5014189;28;20452;-55
2022/12/11 11:27:19;;;;;;;15.57;14.07;;;23.50;49.30;;;;;;5013752;28;20499;-52
2022/12/11 11:29:46;;;;;;;12.57;11.77;;;23.50;48.90;;;;;;5013719;28;20950;-56
2022/12/11 11:32:21;;;;;;;17.40;11.97;;;23.40;48.50;;;;;;5013945;28;20464;-55
2022/12/11 11:34:48;;;;;;;12.43;11.23;;;23.40;48.40;;;;;;5013845;28;20441;-55
2022/12/11 11:37:23;;;;;;;12.40;11.30;;;23.30;48.10;;;;;;5013885;28;20485;-53
2022/12/11 11:39:55;;;;;;;13.63;12.43;;;23.30;48.00;;;;;;5013488;28;20456;-55
2022/12/11 11:42:28;;;;;;;13.30;11.87;;;23.20;47.80;;;;;;5013826;28;20442;-54
2022/12/11 11:45:05;;;;;;;13.23;12.00;;;23.20;47.80;;;;;;5013553;28;20446;-54
2022/12/11 11:47:37;;;;;;;12.30;11.30;;;23.20;47.70;;;;;;5013666;28;20481;-58
2022/12/11 11:50:12;;;;;;;11.53;10.83;;;23.10;47.60;;;;;;5013449;28;20525;-56
2022/12/11 11:52:43;;;;;;;12.90;11.90;;;23.00;47.50;;;;;;5013497;28;20452;-54
2022/12/11 11:55:17;;;;;;;13.17;11.57;;;23.00;47.50;;;;;;5013367;28;20446;-56
2022/12/11 11:57:50;;;;;;;12.27;11.07;;;23.00;47.50;;;;;;5013397;28;20521;-53
2022/12/11 12:00:19;;;;;;;13.40;12.17;;;23.00;47.50;;;;;;5013177;28;20811;-55
2022/12/11 12:02:50;;;;;;;11.90;11.00;;;22.90;47.40;;;;;;5013263;28;20820;-56
2022/12/11 12:05:25;;;;;;;11.77;11.00;;;22.90;47.40;;;;;;5013590;28;20806;-53
2022/12/11 12:08:02;;;;;;;12.43;11.50;;;22.90;47.30;;;;;;5013249;28;20524;-53
2022/12/11 12:10:38;;;;;;;12.83;11.53;;;22.80;47.30;;;;;;5013057;28;20460;-54
2022/12/11 12:13:13;;;;;;;12.27;11.47;;;22.80;47.20;;;;;;5013141;28;20445;-54
2022/12/11 12:15:47;;;;;;;13.90;12.90;;;22.80;47.20;;;;;;5013088;28;20467;-55
2022/12/11 12:18:25;;;;;;;11.53;10.83;;;22.80;47.10;;;;;;5013023;28;20451;-59
2022/12/11 12:20:59;;;;;;;12.03;11.23;;;22.80;47.10;;;;;;5012473;28;20445;-57
2022/12/11 12:23:43;;;;;;;11.80;11.00;;;22.80;47.10;;;;;;5013021;28;20791;-51
2022/12/11 12:26:17;;;;;;;11.90;11.30;;;22.80;47.10;;;;;;5012830;28;20584;-57
2022/12/11 12:28:52;;;;;;;11.30;10.80;;;22.80;47.10;;;;;;5012892;28;20450;-54
2022/12/11 12:31:37;;;;;;;12.70;11.87;;;22.80;47.10;;;;;;5012811;28;20955;-52
2022/12/11 12:34:16;;;;;;;11.33;10.73;;;22.80;47.10;;;;;;5012657;28;20452;-55
2022/12/11 12:36:53;;;;;;;11.00;10.50;;;22.80;47.00;;;;;;5012681;28;20464;-51
2022/12/11 12:39:32;;;;;;;12.37;11.50;;;22.70;46.90;;;;;;5012569;28;20460;-57
2022/12/11 12:42:07;;;;;;;11.63;11.10;;;22.70;46.90;;;;;;5012594;28;20464;-59
2022/12/11 12:44:41;;;;;;;11.20;10.70;;;22.70;46.90;;;;;;5012610;28;20537;-54
2022/12/11 12:47:12;;;;;;;11.30;10.50;;;22.70;46.90;;;;;;5012234;28;20490;-54
2022/12/11 12:49:42;;;;;;;11.53;10.83;;;22.70;46.90;;;;;;5012295;28;20921;-57
2022/12/11 12:52:15;;;;;;;11.63;10.97;;;22.70;46.80;;;;;;5012363;28;20533;-54